Time;durP1;ratioP1;P1;durP2;ratioP2;P2;SDS_P1;SDS_P2;PMS_P1;PMS_P2;Temp;Humidity;BMP_temperature;BMP_pressure;BME280_temperature;BME280_humidity;BME280_pressure;Samples;Min_cycle;Max_cycle;Signal;HPM_P1;HPM_P2
2024/01/19 00:00:14;;;;;;;8.73;4.75;;;1.50;83.40;;;;;;5038723;28;20037;-60
2024/01/19 00:02:40;;;;;;;6.93;4.47;;;1.50;83.70;;;;;;5040857;28;20500;-61
2024/01/19 00:05:06;;;;;;;10.25;4.90;;;1.50;83.40;;;;;;5048532;28;20036;-62
2024/01/19 00:07:32;;;;;;;6.93;4.47;;;1.50;83.30;;;;;;5045082;28;20033;-62
2024/01/19 00:09:57;;;;;;;6.03;4.10;;;1.50;83.40;;;;;;5039282;28;20090;-65
2024/01/19 00:12:23;;;;;;;6.93;4.05;;;1.50;83.80;;;;;;5038320;28;20511;-60
2024/01/19 00:14:48;;;;;;;9.43;4.80;;;1.60;84.00;;;;;;5040134;28;20401;-60
2024/01/19 00:17:14;;;;;;;8.93;4.72;;;1.60;84.20;;;;;;5042807;28;20104;-63
2024/01/19 00:19:40;;;;;;;10.93;5.28;;;1.60;84.20;;;;;;5044813;28;20025;-60
2024/01/19 00:22:05;;;;;;;9.30;4.88;;;1.70;84.30;;;;;;5046220;28;20033;-62
2024/01/19 00:24:31;;;;;;;8.68;4.60;;;1.70;84.20;;;;;;5037602;28;20033;-62
2024/01/19 00:26:56;;;;;;;7.55;4.45;;;1.70;84.00;;;;;;5044491;28;20535;-60
2024/01/19 00:29:22;;;;;;;9.75;4.57;;;1.80;83.70;;;;;;5039683;28;20045;-61
2024/01/19 00:31:48;;;;;;;11.30;4.97;;;1.80;83.60;;;;;;5037101;28;20132;-60
2024/01/19 00:34:14;;;;;;;11.88;4.72;;;1.80;83.50;;;;;;5040336;28;20082;-60
2024/01/19 00:36:40;;;;;;;8.02;4.60;;;1.80;83.30;;;;;;5037845;28;20040;-58
2024/01/19 00:39:06;;;;;;;8.32;4.40;;;1.80;83.20;;;;;;5036918;28;20094;-62
2024/01/19 00:41:32;;;;;;;5.68;4.10;;;1.80;83.30;;;;;;5039508;28;20478;-61
2024/01/19 00:43:57;;;;;;;9.40;4.82;;;1.80;83.30;;;;;;5042074;28;20025;-62
2024/01/19 00:46:23;;;;;;;8.63;5.00;;;1.80;83.60;;;;;;5046262;28;20082;-60
2024/01/19 00:48:49;;;;;;;8.70;4.80;;;1.80;83.40;;;;;;5035979;28;20132;-61
2024/01/19 00:51:15;;;;;;;6.60;4.50;;;1.80;83.20;;;;;;5039962;28;20049;-62
2024/01/19 00:53:41;;;;;;;7.38;4.28;;;1.80;83.20;;;;;;5042069;28;20033;-62
2024/01/19 00:56:08;;;;;;;7.95;4.88;;;1.80;83.30;;;;;;5040491;28;20048;-61
2024/01/19 00:58:34;;;;;;;6.78;4.65;;;1.80;83.40;;;;;;5038931;28;20471;-62
2024/01/19 01:01:00;;;;;;;6.63;4.50;;;1.80;83.20;;;;;;5038363;28;20048;-61
2024/01/19 01:03:28;;;;;;;8.40;4.80;;;1.80;83.10;;;;;;5035975;28;20041;-61
2024/01/19 01:05:58;;;;;;;9.43;5.05;;;1.80;82.70;;;;;;5047127;28;20057;-62
2024/01/19 01:08:25;;;;;;;10.23;5.10;;;1.80;83.00;;;;;;5042302;28;20401;-60
2024/01/19 01:10:51;;;;;;;8.38;5.40;;;1.80;83.00;;;;;;5044125;28;20535;-60
2024/01/19 01:13:17;;;;;;;9.20;5.05;;;1.70;82.70;;;;;;5041409;28;20033;-62
2024/01/19 01:15:43;;;;;;;7.80;5.18;;;1.70;82.60;;;;;;5039788;28;20025;-62
2024/01/19 01:18:09;;;;;;;8.75;4.85;;;1.70;82.60;;;;;;5044566;28;20065;-60
2024/01/19 01:20:34;;;;;;;7.18;4.90;;;1.70;82.70;;;;;;5038644;28;20084;-60
2024/01/19 01:23:00;;;;;;;8.50;5.13;;;1.70;82.60;;;;;;5043956;28;20033;-61
2024/01/19 01:25:25;;;;;;;10.88;4.70;;;1.70;82.50;;;;;;5037818;28;20476;-62
2024/01/19 01:27:51;;;;;;;8.23;5.25;;;1.60;82.60;;;;;;5039597;28;20029;-61
2024/01/19 01:30:16;;;;;;;9.07;5.20;;;1.70;83.80;;;;;;5047825;28;20032;-61
2024/01/19 01:32:42;;;;;;;8.82;5.32;;;1.60;83.10;;;;;;5044053;28;20063;-61
2024/01/19 01:35:08;;;;;;;7.47;4.95;;;1.70;83.00;;;;;;5047092;28;20064;-62
2024/01/19 01:37:34;;;;;;;8.32;5.25;;;1.70;82.80;;;;;;5042311;28;20034;-62
2024/01/19 01:39:59;;;;;;;8.27;5.18;;;1.70;82.80;;;;;;5044091;28;20025;-61
2024/01/19 01:42:25;;;;;;;8.45;4.80;;;1.70;83.10;;;;;;5044650;28;20451;-62
2024/01/19 01:44:50;;;;;;;9.70;5.00;;;1.70;83.20;;;;;;5047795;28;20127;-62
2024/01/19 01:47:16;;;;;;;6.82;4.95;;;1.70;83.00;;;;;;5045639;28;20033;-61
2024/01/19 01:49:42;;;;;;;8.77;4.95;;;1.70;83.00;;;;;;5046182;28;20034;-61
2024/01/19 01:52:08;;;;;;;9.30;5.45;;;1.70;83.00;;;;;;5047919;28;20508;-61
2024/01/19 01:54:34;;;;;;;9.50;5.95;;;1.70;83.00;;;;;;5041315;28;20076;-63
2024/01/19 01:57:00;;;;;;;14.55;5.88;;;1.70;82.80;;;;;;5045328;28;20496;-62
2024/01/19 01:59:26;;;;;;;8.90;5.57;;;1.70;82.70;;;;;;5047317;28;20037;-61
2024/01/19 02:01:52;;;;;;;10.80;5.90;;;1.70;82.60;;;;;;5049612;28;20457;-62
2024/01/19 02:04:18;;;;;;;9.52;5.60;;;1.70;82.40;;;;;;5045340;28;20044;-62
2024/01/19 02:06:44;;;;;;;9.32;5.18;;;1.60;82.30;;;;;;5047378;28;20029;-62
2024/01/19 02:09:10;;;;;;;9.93;5.63;;;1.60;82.50;;;;;;5060395;28;20044;-61
2024/01/19 02:11:35;;;;;;;8.10;5.03;;;1.50;82.50;;;;;;5046039;28;20515;-62
2024/01/19 02:14:05;;;;;;;9.15;5.22;;;1.50;82.50;;;;;;5049264;28;20427;-62
2024/01/19 02:16:31;;;;;;;8.75;5.40;;;1.50;82.40;;;;;;5047439;28;20029;-61
2024/01/19 02:18:57;;;;;;;9.77;5.35;;;1.40;82.30;;;;;;5043576;28;20029;-62
2024/01/19 02:21:23;;;;;;;9.20;5.10;;;1.40;82.30;;;;;;5044842;28;20047;-61
2024/01/19 02:24:01;;;;;;;9.85;5.32;;;1.40;82.50;;;;;;5046103;28;20119;-61
2024/01/19 02:26:28;;;;;;;7.30;4.60;;;1.30;82.50;;;;;;5042632;28;20060;-62
2024/01/19 02:28:54;;;;;;;10.50;5.57;;;1.30;82.80;;;;;;5050395;28;20037;-62
2024/01/19 02:31:19;;;;;;;12.38;5.72;;;1.30;82.80;;;;;;5047451;28;20037;-62
2024/01/19 02:33:45;;;;;;;11.55;5.55;;;1.20;82.70;;;;;;5038999;28;20426;-62
2024/01/19 02:36:11;;;;;;;8.68;6.05;;;1.20;82.50;;;;;;5040227;28;20033;-62
2024/01/19 02:38:36;;;;;;;8.00;5.32;;;1.20;82.50;;;;;;5040955;28;20400;-61
2024/01/19 02:41:02;;;;;;;11.25;6.15;;;1.10;82.50;;;;;;5046001;28;20511;-62
2024/01/19 02:43:27;;;;;;;11.07;5.78;;;1.10;82.50;;;;;;5042651;28;20033;-61
2024/01/19 02:45:53;;;;;;;9.93;5.72;;;1.00;82.50;;;;;;5048241;28;20704;-60
2024/01/19 02:48:18;;;;;;;12.25;6.10;;;1.00;82.60;;;;;;5041384;28;20084;-61
2024/01/19 02:50:44;;;;;;;12.13;6.63;;;1.00;82.60;;;;;;5043994;28;20037;-63
2024/01/19 02:53:10;;;;;;;11.27;5.88;;;0.90;82.60;;;;;;5039036;28;20749;-62
2024/01/19 02:55:35;;;;;;;11.05;6.90;;;0.90;83.70;;;;;;5039315;28;20174;-61
2024/01/19 02:58:01;;;;;;;9.68;6.18;;;0.90;82.90;;;;;;5040919;28;20029;-62
2024/01/19 03:00:27;;;;;;;11.07;6.43;;;0.80;83.00;;;;;;5043132;28;20047;-61
2024/01/19 03:02:52;;;;;;;11.60;6.65;;;0.80;83.00;;;;;;5043139;28;20116;-62
2024/01/19 03:05:19;;;;;;;12.18;6.70;;;0.80;83.00;;;;;;5041483;28;20395;-61
2024/01/19 03:07:44;;;;;;;13.52;6.90;;;0.80;83.10;;;;;;5044203;28;20116;-62
2024/01/19 03:10:10;;;;;;;12.93;6.32;;;0.80;83.40;;;;;;5042673;28;20456;-61
2024/01/19 03:12:36;;;;;;;14.77;6.53;;;0.80;83.50;;;;;;5040019;28;20436;-62
2024/01/19 03:15:02;;;;;;;11.23;6.55;;;0.80;83.50;;;;;;5050473;28;20029;-62
2024/01/19 03:17:28;;;;;;;12.43;6.72;;;0.90;83.40;;;;;;5040987;28;20075;-61
2024/01/19 03:19:53;;;;;;;10.25;6.60;;;0.90;83.40;;;;;;5043567;28;20048;-61
2024/01/19 03:22:19;;;;;;;11.80;6.57;;;0.90;83.50;;;;;;5043288;28;20036;-62
2024/01/19 03:24:45;;;;;;;10.27;6.38;;;0.90;83.70;;;;;;5040717;28;20040;-62
2024/01/19 03:27:10;;;;;;;12.55;6.93;;;0.90;83.50;;;;;;5039127;28;20441;-59
2024/01/19 03:29:36;;;;;;;13.40;6.85;;;0.90;83.50;;;;;;5037856;28;20068;-61
2024/01/19 03:32:01;;;;;;;10.43;6.45;;;0.90;83.30;;;;;;5037436;28;20119;-61
2024/01/19 03:34:27;;;;;;;15.27;7.03;;;0.90;83.30;;;;;;5040902;28;20448;-62
2024/01/19 03:36:52;;;;;;;9.68;6.43;;;0.90;83.30;;;;;;5037882;28;20548;-61
2024/01/19 03:39:19;;;;;;;12.55;6.60;;;0.90;83.40;;;;;;5043500;28;20270;-62
2024/01/19 03:41:44;;;;;;;11.25;6.78;;;0.90;83.60;;;;;;5048759;28;20029;-62
2024/01/19 03:44:10;;;;;;;11.02;6.30;;;1.00;83.80;;;;;;5047199;28;20044;-61
2024/01/19 03:46:35;;;;;;;14.23;7.18;;;1.00;83.70;;;;;;5043855;28;20040;-62
2024/01/19 03:49:01;;;;;;;11.48;6.80;;;1.00;83.70;;;;;;5044941;28;20098;-62
2024/01/19 03:51:26;;;;;;;12.40;6.95;;;1.00;83.50;;;;;;5043199;28;20026;-60
2024/01/19 03:53:52;;;;;;;12.48;6.47;;;1.00;83.70;;;;;;5042791;28;20087;-60
2024/01/19 03:56:18;;;;;;;11.25;7.03;;;1.00;83.70;;;;;;5043086;28;20064;-60
2024/01/19 03:58:44;;;;;;;10.90;6.70;;;1.00;83.70;;;;;;5044341;28;20045;-61
2024/01/19 04:01:09;;;;;;;10.43;6.07;;;1.00;83.30;;;;;;5037457;28;20531;-61
2024/01/19 04:03:36;;;;;;;12.88;5.90;;;1.00;83.50;;;;;;5039304;28;20396;-58
2024/01/19 04:06:02;;;;;;;12.43;5.88;;;1.00;83.20;;;;;;5041648;28;20029;-63
2024/01/19 04:08:28;;;;;;;12.10;6.15;;;1.00;82.90;;;;;;5042899;28;20053;-62
2024/01/19 04:10:54;;;;;;;10.70;5.75;;;1.00;82.80;;;;;;5040641;28;20041;-62
2024/01/19 04:13:20;;;;;;;11.65;6.18;;;1.10;82.30;;;;;;5044639;28;20479;-60
2024/01/19 04:15:45;;;;;;;11.18;6.40;;;1.10;82.00;;;;;;5038064;28;20037;-62
2024/01/19 04:18:11;;;;;;;10.27;5.70;;;1.00;82.20;;;;;;5041906;28;20036;-61
2024/01/19 04:20:36;;;;;;;10.27;5.85;;;1.00;82.20;;;;;;5042596;28;20448;-61
2024/01/19 04:23:02;;;;;;;10.57;5.72;;;1.10;82.50;;;;;;5041065;28;20025;-59
2024/01/19 04:25:28;;;;;;;11.77;5.70;;;1.10;82.30;;;;;;5044677;28;20040;-62
2024/01/19 04:27:55;;;;;;;9.95;5.25;;;1.10;82.00;;;;;;5039426;28;20044;-62
2024/01/19 04:30:20;;;;;;;11.95;5.13;;;1.10;81.70;;;;;;5038206;28;20516;-60
2024/01/19 04:32:46;;;;;;;7.78;5.00;;;1.10;81.30;;;;;;5036307;28;20037;-61
2024/01/19 04:35:11;;;;;;;8.77;5.07;;;1.10;79.70;;;;;;5036783;28;20076;-62
2024/01/19 04:37:37;;;;;;;9.63;4.97;;;1.10;80.70;;;;;;5044979;28;20083;-61
2024/01/19 04:40:03;;;;;;;7.57;4.53;;;1.00;80.60;;;;;;5044288;28;20116;-61
2024/01/19 04:42:29;;;;;;;7.03;4.40;;;1.00;80.20;;;;;;5036980;28;20037;-61
2024/01/19 04:44:54;;;;;;;7.35;4.15;;;1.00;80.00;;;;;;5036009;28;20082;-59
2024/01/19 04:47:20;;;;;;;8.95;4.50;;;0.90;79.70;;;;;;5035131;28;20029;-61
2024/01/19 04:49:45;;;;;;;6.20;3.92;;;0.80;79.20;;;;;;5041264;28;20052;-61
2024/01/19 04:52:11;;;;;;;7.38;4.30;;;0.70;79.20;;;;;;5040755;28;20047;-62
2024/01/19 04:54:36;;;;;;;5.85;3.67;;;0.60;79.10;;;;;;5036914;28;20534;-63
2024/01/19 04:57:02;;;;;;;7.70;4.07;;;0.60;79.20;;;;;;5037034;28;20033;-62
2024/01/19 04:59:28;;;;;;;6.15;4.00;;;0.50;79.30;;;;;;5045503;28;20026;-62
2024/01/19 05:01:53;;;;;;;7.20;3.97;;;0.40;79.00;;;;;;5042911;28;20048;-60
2024/01/19 05:04:19;;;;;;;8.00;4.30;;;0.40;78.90;;;;;;5039101;28;20105;-61
2024/01/19 05:06:44;;;;;;;8.75;4.70;;;0.30;79.10;;;;;;5040014;28;20033;-61
2024/01/19 05:09:10;;;;;;;8.50;4.53;;;0.30;79.40;;;;;;5041527;28;20519;-61
2024/01/19 05:11:35;;;;;;;7.78;4.50;;;0.20;79.80;;;;;;5037386;28;20026;-59
2024/01/19 05:14:03;;;;;;;7.57;4.40;;;0.20;80.00;;;;;;5036030;28;20036;-62
2024/01/19 05:16:28;;;;;;;7.30;4.40;;;0.20;80.40;;;;;;5038239;28;20040;-61
2024/01/19 05:18:54;;;;;;;7.75;5.05;;;0.20;80.90;;;;;;5036196;28;20045;-62
2024/01/19 05:21:19;;;;;;;6.70;4.38;;;0.30;81.30;;;;;;5037657;28;20167;-61
2024/01/19 05:23:45;;;;;;;7.50;4.90;;;0.30;81.40;;;;;;5040949;28;20348;-60
2024/01/19 05:26:10;;;;;;;11.85;5.28;;;0.30;81.40;;;;;;5041595;28;20036;-62
2024/01/19 05:28:36;;;;;;;9.20;5.10;;;0.30;81.30;;;;;;5039010;28;20032;-62
2024/01/19 05:31:02;;;;;;;9.50;5.05;;;0.40;81.40;;;;;;5028775;28;20879;-61
2024/01/19 05:33:30;;;;;;;9.70;5.57;;;0.40;81.40;;;;;;5037967;28;20048;-60
2024/01/19 05:35:56;;;;;;;12.82;6.70;;;0.30;81.30;;;;;;5032256;28;20049;-60
2024/01/19 05:38:22;;;;;;;11.45;6.38;;;0.30;81.30;;;;;;5040108;28;20420;-60
2024/01/19 05:40:48;;;;;;;10.00;6.13;;;0.30;81.20;;;;;;5044176;28;20025;-62
2024/01/19 05:43:13;;;;;;;12.18;6.47;;;0.30;81.40;;;;;;5044294;28;20040;-62
2024/01/19 05:45:39;;;;;;;9.90;5.82;;;0.30;81.40;;;;;;5039939;28;20044;-61
2024/01/19 05:48:05;;;;;;;10.60;6.22;;;0.20;81.30;;;;;;5045165;28;20079;-61
2024/01/19 05:50:30;;;;;;;13.98;6.78;;;0.20;81.50;;;;;;5039656;28;20470;-62
2024/01/19 05:52:57;;;;;;;10.90;6.35;;;0.20;81.60;;;;;;5043934;28;20040;-61
2024/01/19 05:55:22;;;;;;;9.48;6.30;;;0.20;81.50;;;;;;5041281;28;20027;-61
2024/01/19 05:57:48;;;;;;;9.82;5.80;;;0.10;81.50;;;;;;5043304;28;20557;-61
2024/01/19 06:00:14;;;;;;;14.27;6.32;;;0.20;81.80;;;;;;5037700;28;20029;-62
2024/01/19 06:02:39;;;;;;;12.85;6.88;;;0.10;81.80;;;;;;5037051;28;20041;-62
2024/01/19 06:05:05;;;;;;;12.60;6.28;;;0.10;81.80;;;;;;5038968;28;20185;-61
2024/01/19 06:07:32;;;;;;;11.07;5.90;;;0.10;81.80;;;;;;5031672;28;20508;-61
2024/01/19 06:09:58;;;;;;;9.52;6.32;;;0.10;81.90;;;;;;5044590;28;20044;-62
2024/01/19 06:12:24;;;;;;;12.98;7.22;;;0.10;82.00;;;;;;5041182;28;20048;-60
2024/01/19 06:14:49;;;;;;;12.57;6.65;;;0.10;82.10;;;;;;5044850;28;20405;-59
2024/01/19 06:17:15;;;;;;;11.40;6.38;;;0.10;82.20;;;;;;5042234;28;20036;-58
2024/01/19 06:19:41;;;;;;;11.88;6.13;;;0.00;82.10;;;;;;5038055;28;20514;-62
2024/01/19 06:22:07;;;;;;;13.77;7.95;;;0.10;82.30;;;;;;5037994;28;20033;-64
2024/01/19 06:24:35;;;;;;;16.08;10.27;;;0.00;82.30;;;;;;5052458;28;20039;-62
2024/01/19 06:27:01;;;;;;;17.40;9.05;;;0.10;82.30;;;;;;5049536;28;20090;-63
2024/01/19 06:29:26;;;;;;;13.57;8.48;;;0.10;82.10;;;;;;5049293;28;20538;-61
2024/01/19 06:31:52;;;;;;;16.15;8.23;;;0.10;81.80;;;;;;5044108;28;20037;-62
2024/01/19 06:34:18;;;;;;;13.75;7.70;;;0.00;81.60;;;;;;5044826;28;20048;-61
2024/01/19 06:36:44;;;;;;;13.35;7.43;;;0.00;81.60;;;;;;5043814;28;20534;-61
2024/01/19 06:39:13;;;;;;;8.40;5.43;;;0.00;81.80;;;;;;5041414;28;20064;-62
2024/01/19 06:41:44;;;;;;;9.80;5.60;;;0.00;81.50;;;;;;5044572;28;20056;-60
2024/01/19 06:44:10;;;;;;;8.85;5.07;;;0.00;81.30;;;;;;5043259;28;20424;-61
2024/01/19 06:46:36;;;;;;;9.63;5.50;;;0.00;82.20;;;;;;5043448;28;20026;-61
2024/01/19 06:49:01;;;;;;;7.72;5.07;;;0.00;81.40;;;;;;5049980;28;20036;-63
2024/01/19 06:51:28;;;;;;;10.07;5.50;;;0.00;81.50;;;;;;5046696;28;20061;-62
2024/01/19 06:53:55;;;;;;;8.73;5.57;;;0.00;81.80;;;;;;5044386;28;20066;-61
2024/01/19 06:56:21;;;;;;;9.35;5.57;;;0.00;82.00;;;;;;5044598;28;20920;-61
2024/01/19 06:58:46;;;;;;;17.00;5.82;;;0.00;82.10;;;;;;5046821;28;20072;-63
2024/01/19 07:01:12;;;;;;;9.10;5.47;;;0.00;82.10;;;;;;5043367;28;20420;-62
2024/01/19 07:03:37;;;;;;;14.73;6.07;;;0.00;82.10;;;;;;5041716;28;20068;-61
2024/01/19 07:06:03;;;;;;;9.23;5.95;;;0.00;82.30;;;;;;5038539;28;20048;-62
2024/01/19 07:08:28;;;;;;;10.63;6.63;;;0.00;82.30;;;;;;5043912;28;20037;-62
2024/01/19 07:10:54;;;;;;;10.77;6.50;;;0.00;82.40;;;;;;5040413;28;20048;-62
2024/01/19 07:13:20;;;;;;;11.20;5.97;;;0.10;82.70;;;;;;5042208;28;20124;-62
2024/01/19 07:15:45;;;;;;;16.42;7.72;;;0.10;83.00;;;;;;5040134;28;20055;-61
2024/01/19 07:18:11;;;;;;;11.25;7.32;;;0.10;83.20;;;;;;5037332;28;20067;-64
2024/01/19 07:20:37;;;;;;;14.65;8.35;;;0.20;83.20;;;;;;5035992;28;20492;-62
2024/01/19 07:23:03;;;;;;;16.77;8.50;;;0.20;83.10;;;;;;5042528;28;20024;-61
2024/01/19 07:25:29;;;;;;;14.32;8.25;;;0.20;83.10;;;;;;5039084;28;20497;-62
2024/01/19 07:27:55;;;;;;;15.18;8.35;;;0.30;83.30;;;;;;5042271;28;20041;-62
2024/01/19 07:30:20;;;;;;;15.27;8.73;;;0.30;83.30;;;;;;5038348;28;20056;-61
2024/01/19 07:32:46;;;;;;;14.10;7.70;;;0.30;83.30;;;;;;5040451;28;20033;-62
2024/01/19 07:35:11;;;;;;;18.40;8.27;;;0.30;83.20;;;;;;5038398;28;20045;-61
2024/01/19 07:37:37;;;;;;;13.73;7.85;;;0.40;83.20;;;;;;5040607;28;20407;-61
2024/01/19 07:40:03;;;;;;;15.82;7.47;;;0.40;83.20;;;;;;5041482;28;20129;-62
2024/01/19 07:42:29;;;;;;;14.80;7.80;;;0.40;83.00;;;;;;5038406;28;20041;-62
2024/01/19 07:44:54;;;;;;;17.05;8.02;;;0.40;83.10;;;;;;5039267;28;20038;-60
2024/01/19 07:47:20;;;;;;;14.95;8.10;;;0.40;82.90;;;;;;5042252;28;20428;-62
2024/01/19 07:49:46;;;;;;;18.17;9.15;;;0.40;82.90;;;;;;5044026;28;20029;-62
2024/01/19 07:52:11;;;;;;;15.02;8.85;;;0.40;83.00;;;;;;5044087;28;20089;-60
2024/01/19 07:54:37;;;;;;;22.42;12.02;;;0.40;82.90;;;;;;5039870;28;20400;-61
2024/01/19 07:57:03;;;;;;;22.90;9.65;;;0.40;82.80;;;;;;5040432;28;20044;-61
2024/01/19 07:59:28;;;;;;;22.77;12.93;;;0.40;82.70;;;;;;5039613;28;20469;-60
2024/01/19 08:01:54;;;;;;;26.13;13.48;;;0.40;82.80;;;;;;5040504;28;20293;-59
2024/01/19 08:04:19;;;;;;;20.98;11.40;;;0.40;83.00;;;;;;5037164;28;20033;-63
2024/01/19 08:06:45;;;;;;;24.70;10.80;;;0.50;83.30;;;;;;5040619;28;20033;-61
2024/01/19 08:09:13;;;;;;;18.35;9.60;;;0.50;83.40;;;;;;5046068;28;20107;-58
2024/01/19 08:11:39;;;;;;;22.05;11.45;;;0.50;83.30;;;;;;5039708;28;20049;-61
2024/01/19 08:14:04;;;;;;;26.65;11.40;;;0.50;83.40;;;;;;5040108;28;20564;-60
2024/01/19 08:16:30;;;;;;;21.02;10.48;;;0.50;83.30;;;;;;5045142;28;20109;-60
2024/01/19 08:18:56;;;;;;;21.05;10.65;;;0.50;83.00;;;;;;5045819;28;20116;-60
2024/01/19 08:21:22;;;;;;;17.48;10.05;;;0.60;83.00;;;;;;5047737;28;20047;-62
2024/01/19 08:23:48;;;;;;;23.27;11.52;;;0.60;83.10;;;;;;5043778;28;20069;-61
2024/01/19 08:26:13;;;;;;;19.70;10.82;;;0.60;83.30;;;;;;5047963;28;20114;-63
2024/01/19 08:28:39;;;;;;;24.60;12.30;;;0.70;83.20;;;;;;5045626;28;20042;-63
2024/01/19 08:31:11;;;;;;;22.90;12.20;;;0.70;83.20;;;;;;5043381;28;20466;-60
2024/01/19 08:33:36;;;;;;;21.23;11.23;;;0.70;83.00;;;;;;5041760;28;20041;-60
2024/01/19 08:36:02;;;;;;;17.98;9.85;;;0.70;83.00;;;;;;5048227;28;20047;-60
2024/01/19 08:38:28;;;;;;;21.02;12.18;;;0.80;83.10;;;;;;5046439;28;20128;-61
2024/01/19 08:40:54;;;;;;;22.75;13.50;;;0.80;83.20;;;;;;5043247;28;20038;-61
2024/01/19 08:43:19;;;;;;;22.15;12.63;;;0.90;83.30;;;;;;5037951;28;20032;-60
2024/01/19 08:45:45;;;;;;;23.63;13.40;;;0.90;83.20;;;;;;5048257;28;20055;-59
2024/01/19 08:48:11;;;;;;;25.85;12.63;;;0.90;83.00;;;;;;5046003;28;20526;-61
2024/01/19 08:50:36;;;;;;;23.63;12.07;;;1.00;82.80;;;;;;5042782;28;20048;-58
2024/01/19 08:53:02;;;;;;;18.13;10.32;;;1.00;82.60;;;;;;5044548;28;20110;-61
2024/01/19 08:55:29;;;;;;;19.08;11.05;;;1.10;82.50;;;;;;5041128;28;20116;-60
2024/01/19 08:57:55;;;;;;;21.73;11.50;;;1.10;82.50;;;;;;5037674;28;20157;-62
2024/01/19 09:00:21;;;;;;;26.30;12.32;;;1.10;82.30;;;;;;5046137;28;20021;-60
2024/01/19 09:02:48;;;;;;;24.05;11.80;;;1.10;82.30;;;;;;5044037;28;20025;-59
2024/01/19 09:05:14;;;;;;;20.42;12.48;;;1.10;82.30;;;;;;5047512;28;20090;-61
2024/01/19 09:07:40;;;;;;;22.27;12.18;;;1.10;82.30;;;;;;5043138;28;20317;-62
2024/01/19 09:10:07;;;;;;;26.50;13.15;;;1.10;82.30;;;;;;5043435;28;20037;-58
2024/01/19 09:12:32;;;;;;;23.25;12.93;;;1.10;82.10;;;;;;5040263;28;20041;-61
2024/01/19 09:14:58;;;;;;;25.92;14.23;;;1.10;82.20;;;;;;5045138;28;20036;-57
2024/01/19 09:17:23;;;;;;;27.40;14.43;;;1.10;82.10;;;;;;5043226;28;20033;-62
2024/01/19 09:19:49;;;;;;;29.17;14.07;;;1.10;82.00;;;;;;5045499;28;20036;-64
2024/01/19 09:22:14;;;;;;;28.05;14.00;;;1.10;82.00;;;;;;5043295;28;20021;-61
2024/01/19 09:24:40;;;;;;;25.17;13.95;;;1.10;82.10;;;;;;5042718;28;20036;-59
2024/01/19 09:27:06;;;;;;;24.20;13.48;;;1.10;82.30;;;;;;5049123;28;20048;-61
2024/01/19 09:29:31;;;;;;;24.35;13.82;;;1.10;82.50;;;;;;5045735;28;20076;-60
2024/01/19 09:31:57;;;;;;;24.55;14.40;;;1.10;82.70;;;;;;5038247;28;20025;-59
2024/01/19 09:34:22;;;;;;;30.45;13.95;;;1.10;83.00;;;;;;5038026;28;20045;-59
2024/01/19 09:36:48;;;;;;;26.27;13.98;;;1.10;83.00;;;;;;5044324;28;20032;-61
2024/01/19 09:39:14;;;;;;;22.75;13.40;;;1.20;84.10;;;;;;5042621;28;20059;-61
2024/01/19 09:41:46;;;;;;;24.13;13.23;;;1.30;83.40;;;;;;5042196;28;20038;-61
2024/01/19 09:44:13;;;;;;;22.42;12.68;;;1.30;83.30;;;;;;5043680;28;20451;-59
2024/01/19 09:46:50;;;;;;;27.15;14.15;;;1.40;83.40;;;;;;5043356;28;20041;-61
2024/01/19 09:49:47;;;;;;;18.90;11.63;;;1.50;83.10;;;;;;5041604;28;20040;-60
2024/01/19 09:52:42;;;;;;;19.55;11.35;;;1.60;81.80;;;;;;5044553;28;20518;-61
2024/01/19 09:55:10;;;;;;;12.45;7.93;;;1.60;81.90;;;;;;5049254;28;20037;-59
2024/01/19 09:57:46;;;;;;;11.05;6.60;;;1.70;81.10;;;;;;5043035;28;20552;-62
2024/01/19 10:00:13;;;;;;;7.88;5.22;;;1.70;78.80;;;;;;5045728;28;20029;-59
2024/01/19 10:02:51;;;;;;;8.77;5.70;;;1.80;78.50;;;;;;5048627;28;20075;-59
2024/01/19 10:05:19;;;;;;;6.53;4.43;;;1.80;77.70;;;;;;5046593;28;20041;-61
2024/01/19 10:07:53;;;;;;;7.85;4.57;;;1.80;76.60;;;;;;5048688;28;20041;-60
2024/01/19 10:10:19;;;;;;;8.70;5.68;;;1.90;75.90;;;;;;5044746;28;20033;-61
2024/01/19 10:12:45;;;;;;;10.98;7.00;;;1.90;74.30;;;;;;5044841;28;20048;-62
2024/01/19 10:15:12;;;;;;;12.02;6.97;;;1.90;74.90;;;;;;5047688;28;20037;-60
2024/01/19 10:17:39;;;;;;;13.52;8.05;;;1.90;74.70;;;;;;5045845;28;20206;-60
2024/01/19 10:20:06;;;;;;;17.30;9.23;;;1.90;75.20;;;;;;5049050;28;20036;-61
2024/01/19 10:22:32;;;;;;;12.48;8.48;;;1.90;75.50;;;;;;5046767;28;20036;-61
2024/01/19 10:25:08;;;;;;;13.23;8.65;;;1.90;76.20;;;;;;5042534;28;20661;-60
2024/01/19 10:27:46;;;;;;;17.60;10.90;;;1.90;75.90;;;;;;5045240;28;20037;-60
2024/01/19 10:30:14;;;;;;;20.92;12.13;;;1.90;75.50;;;;;;5048859;28;20032;-59
2024/01/19 10:32:42;;;;;;;19.70;12.07;;;1.90;76.00;;;;;;5042431;28;20040;-61
2024/01/19 10:35:11;;;;;;;21.45;11.70;;;1.90;76.40;;;;;;5045385;28;20045;-61
2024/01/19 10:37:37;;;;;;;19.95;11.55;;;1.90;76.50;;;;;;5038783;28;20641;-62
2024/01/19 10:40:22;;;;;;;20.40;11.73;;;1.90;76.30;;;;;;5042399;28;20045;-61
2024/01/19 10:42:51;;;;;;;19.77;12.25;;;1.90;76.10;;;;;;5047677;28;20112;-59
2024/01/19 10:45:19;;;;;;;21.95;12.18;;;1.90;76.90;;;;;;5048919;28;20040;-60
2024/01/19 10:47:56;;;;;;;18.52;11.63;;;1.90;77.00;;;;;;5047080;28;20123;-59
2024/01/19 10:50:25;;;;;;;16.98;10.20;;;1.90;76.60;;;;;;5049381;28;20048;-61
2024/01/19 10:52:51;;;;;;;16.60;10.60;;;1.90;76.80;;;;;;5044261;28;20034;-62
2024/01/19 10:55:25;;;;;;;13.35;9.02;;;2.00;76.50;;;;;;5042773;28;20040;-62
2024/01/19 10:57:56;;;;;;;14.27;8.20;;;2.00;76.40;;;;;;5043122;28;20033;-62
2024/01/19 11:00:27;;;;;;;13.68;7.75;;;2.00;76.40;;;;;;5041505;28;20457;-62
2024/01/19 11:02:57;;;;;;;10.63;7.38;;;2.10;76.10;;;;;;5049825;28;20526;-60
2024/01/19 11:05:24;;;;;;;13.95;7.95;;;2.10;75.70;;;;;;5042113;28;20092;-62
2024/01/19 11:07:55;;;;;;;13.38;8.25;;;2.20;76.20;;;;;;5045807;28;20037;-60
2024/01/19 11:10:22;;;;;;;11.93;8.10;;;2.30;76.30;;;;;;5039576;28;20037;-60
2024/01/19 11:12:55;;;;;;;17.38;10.52;;;2.30;76.60;;;;;;5041673;28;20104;-60
2024/01/19 11:15:27;;;;;;;16.17;9.68;;;2.40;76.60;;;;;;5046629;28;20029;-62
2024/01/19 11:17:56;;;;;;;16.08;9.48;;;2.50;76.20;;;;;;5048070;28;20117;-61
2024/01/19 11:20:23;;;;;;;22.42;12.65;;;2.50;76.00;;;;;;5041959;28;20025;-62
2024/01/19 11:22:53;;;;;;;11.23;7.95;;;2.60;76.00;;;;;;5037788;28;20040;-62
2024/01/19 11:25:43;;;;;;;15.82;9.40;;;2.60;75.30;;;;;;5038157;28;20116;-61
2024/01/19 11:28:14;;;;;;;17.35;9.15;;;2.70;74.40;;;;;;5032380;28;20037;-65
2024/01/19 11:31:15;;;;;;;14.75;8.57;;;2.70;74.10;;;;;;5038565;28;20075;-61
2024/01/19 11:33:41;;;;;;;13.07;8.88;;;2.70;73.30;;;;;;5044103;28;20048;-59
2024/01/19 11:36:07;;;;;;;19.77;9.25;;;2.80;75.40;;;;;;5043794;28;20464;-62
2024/01/19 11:38:43;;;;;;;14.95;8.00;;;2.80;74.00;;;;;;5046617;28;20067;-59
2024/01/19 11:41:10;;;;;;;14.55;8.10;;;2.80;73.10;;;;;;5043663;28;20047;-62
2024/01/19 11:43:43;;;;;;;13.45;9.02;;;2.80;73.10;;;;;;5041755;28;20036;-59
2024/01/19 11:46:10;;;;;;;14.75;8.77;;;2.80;72.40;;;;;;5047039;28;20355;-63
2024/01/19 11:48:45;;;;;;;14.02;8.38;;;2.70;72.70;;;;;;5043352;28;20041;-61
2024/01/19 11:51:31;;;;;;;17.52;9.48;;;2.70;72.80;;;;;;5042666;28;20059;-62
2024/01/19 11:54:01;;;;;;;15.50;8.65;;;2.60;72.90;;;;;;5043357;28;20436;-61
2024/01/19 11:56:28;;;;;;;13.80;8.70;;;2.60;74.00;;;;;;5038851;28;20032;-60
2024/01/19 11:58:54;;;;;;;14.82;8.65;;;2.50;74.10;;;;;;5042855;28;20080;-62
2024/01/19 12:01:20;;;;;;;14.52;8.75;;;2.60;74.50;;;;;;5044536;28;20037;-61
2024/01/19 12:03:52;;;;;;;14.27;8.30;;;2.60;75.10;;;;;;5043875;28;20043;-61
2024/01/19 12:06:18;;;;;;;14.45;8.70;;;2.70;75.20;;;;;;5044695;28;20453;-59
2024/01/19 12:08:44;;;;;;;12.68;8.32;;;2.70;75.40;;;;;;5040270;28;20060;-61
2024/01/19 12:11:14;;;;;;;14.73;8.30;;;2.80;75.40;;;;;;5040588;28;20696;-61
2024/01/19 12:13:41;;;;;;;13.15;8.88;;;2.80;74.80;;;;;;5038632;28;20624;-62
2024/01/19 12:16:07;;;;;;;15.50;10.60;;;2.90;74.80;;;;;;5041072;28;20061;-60
2024/01/19 12:18:35;;;;;;;15.48;8.98;;;2.90;74.50;;;;;;5037898;28;20117;-62
2024/01/19 12:21:02;;;;;;;15.25;9.65;;;2.90;74.90;;;;;;5036007;28;20044;-61
2024/01/19 12:23:33;;;;;;;16.70;10.23;;;2.90;75.30;;;;;;5037336;28;20315;-61
2024/01/19 12:26:00;;;;;;;16.88;10.40;;;2.90;75.30;;;;;;5039985;28;20401;-63
2024/01/19 12:28:27;;;;;;;13.75;9.65;;;2.90;75.50;;;;;;5038346;28;20048;-61
2024/01/19 12:30:53;;;;;;;14.15;10.00;;;2.90;75.50;;;;;;5040052;28;20120;-61
2024/01/19 12:33:21;;;;;;;17.17;9.73;;;3.00;75.50;;;;;;5038456;28;20057;-61
2024/01/19 12:35:48;;;;;;;18.88;10.38;;;3.00;75.40;;;;;;5037645;28;20064;-62
2024/01/19 12:38:16;;;;;;;15.70;10.65;;;3.00;75.30;;;;;;5041073;28;20098;-62
2024/01/19 12:40:43;;;;;;;18.40;11.57;;;3.10;75.30;;;;;;5039709;28;20348;-60
2024/01/19 12:43:09;;;;;;;18.00;11.13;;;3.10;75.40;;;;;;5035011;28;20038;-65
2024/01/19 12:45:35;;;;;;;15.13;10.27;;;3.10;75.30;;;;;;5039185;28;20040;-62